Time;durP1;ratioP1;P1;durP2;ratioP2;P2;SDS_P1;SDS_P2;PMS_P1;PMS_P2;Temp;Humidity;BMP_temperature;BMP_pressure;BME280_temperature;BME280_humidity;BME280_pressure;Samples;Min_cycle;Max_cycle;Signal;HPM_P1;HPM_P2
2024/03/15 00:09:18;;;;;;;29.1;18.8;;;;;;;2.52;91.19;98681.666666667;;;;
2024/03/15 00:20:18;;;;;;;22.2;16.9;;;;;;;2.71;90.83;98668.333333333;;;;
2024/03/15 00:31:18;;;;;;;22.2;16.9;;;;;;;2.36;90.66;98658.333333333;;;;
2024/03/15 00:42:18;;;;;;;22.2;16.9;;;;;;;2.37;90.67;98645;;;;
2024/03/15 00:52:19;;;;;;;22.6;14.7;;;;;;;2.2;89.87;98643.333333333;;;;
2024/03/15 01:03:18;;;;;;;22.6;14.7;;;;;;;2.31;89.43;98638.333333333;;;;
2024/03/15 01:13:18;;;;;;;22.6;14.7;;;;;;;2.3;89.26;98633.333333333;;;;
2024/03/15 01:23:18;;;;;;;21.1;14;;;;;;;2.26;90.12;98635;;;;
2024/03/15 01:33:18;;;;;;;21.1;14;;;;;;;2.14;89.29;98633.333333333;;;;
2024/03/15 01:43:18;;;;;;;21.1;14;;;;;;;2.1;89.36;98641.666666667;;;;
2024/03/15 01:54:18;;;;;;;19.7;12.5;;;;;;;2.08;89.56;98643.333333333;;;;
2024/03/15 02:05:20;;;;;;;19.7;12.5;;;;;;;1.9;89.46;98646.666666667;;;;
2024/03/15 02:15:18;;;;;;;19.7;12.5;;;;;;;1.9;88.96;98638.333333333;;;;
2024/03/15 02:26:18;;;;;;;21.4;12.7;;;;;;;1.58;89.12;98645;;;;
2024/03/15 02:37:19;;;;;;;21.4;12.7;;;;;;;1.49;89.43;98653.333333333;;;;
2024/03/15 02:48:18;;;;;;;18;11.4;;;;;;;1.38;89.09;98641.666666667;;;;
2024/03/15 02:59:19;;;;;;;18;11.4;;;;;;;1.24;89.16;98635;;;;
2024/03/15 03:10:19;;;;;;;18;11.4;;;;;;;1.24;89.32;98625;;;;
2024/03/15 03:21:19;;;;;;;16.8;9.8;;;;;;;1.06;89.05;98623.333333333;;;;
2024/03/15 03:32:18;;;;;;;16.8;9.8;;;;;;;1.02;89.28;98631.666666667;;;;
2024/03/15 03:42:20;;;;;;;16.8;9.8;;;;;;;0.85;89.55;98635;;;;
2024/03/15 03:52:19;;;;;;;20;12.4;;;;;;;0.92;90.34;98646.666666667;;;;
2024/03/15 04:03:18;;;;;;;20;12.4;;;;;;;1.22;90.22;98650;;;;
2024/03/15 04:13:19;;;;;;;20;12.4;;;;;;;0.92;90.64;98643.333333333;;;;
2024/03/15 04:23:20;;;;;;;19.8;12.4;;;;;;;0.85;91.07;98645;;;;
2024/03/15 04:34:19;;;;;;;19.8;12.4;;;;;;;0.85;91.31;98633.333333333;;;;
2024/03/15 04:45:19;;;;;;;19.8;12.4;;;;;;;0.9;90.17;98638.333333333;;;;
2024/03/15 04:55:19;;;;;;;17.5;11.4;;;;;;;0.78;89.56;98643.333333333;;;;
2024/03/15 05:05:21;;;;;;;17.5;11.4;;;;;;;0.84;89.3;98638.333333333;;;;
2024/03/15 05:15:20;;;;;;;17.5;11.4;;;;;;;0.78;89.42;98641.666666667;;;;
2024/03/15 05:25:19;;;;;;;15.7;9.4;;;;;;;0.81;89.63;98638.333333333;;;;
2024/03/15 05:36:18;;;;;;;15.7;9.4;;;;;;;0.88;90.06;98641.666666667;;;;
2024/03/15 05:47:18;;;;;;;17;10.4;;;;;;;1.02;88.78;98643.333333333;;;;
2024/03/15 05:58:19;;;;;;;17;10.4;;;;;;;1.1;88.53;98648.333333333;;;;
2024/03/15 06:08:19;;;;;;;17;10.4;;;;;;;1.08;89.41;98660;;;;
2024/03/15 06:18:19;;;;;;;17.5;11.2;;;;;;;1.42;89.48;98655;;;;
2024/03/15 06:28:19;;;;;;;17.5;11.2;;;;;;;1.71;89.91;98654;;;;
2024/03/15 06:39:24;;;;;;;17.5;11.2;;;;;;;1.85;88.76;98671.666666667;;;;
2024/03/15 06:50:30;;;;;;;16.3;9.3;;;;;;;2.24;88.81;98676.666666667;;;;
2024/03/15 07:01:19;;;;;;;16.3;9.3;;;;;;;2.28;88.28;98671.666666667;;;;
2024/03/15 07:11:19;;;;;;;16.3;9.3;;;;;;;2.46;89.04;98673.333333333;;;;
2024/03/15 07:21:21;;;;;;;18.5;10.5;;;;;;;2.42;89.87;98673.333333333;;;;
2024/03/15 07:32:19;;;;;;;18.5;10.5;;;;;;;2.88;90.4;98678.333333333;;;;
2024/03/15 07:43:19;;;;;;;18.5;10.5;;;;;;;3.49;89.89;98680;;;;
2024/03/15 07:53:19;;;;;;;18.7;12;;;;;;;4.13;88.89;98683.333333333;;;;
2024/03/15 08:04:19;;;;;;;18.7;12;;;;;;;5.15;87.64;98686.666666667;;;;
2024/03/15 08:15:19;;;;;;;18.7;12;;;;;;;5.36;86.81;98680;;;;
2024/03/15 08:25:19;;;;;;;26.2;15.9;;;;;;;6.09;86.05;98675;;;;
2024/03/15 08:36:19;;;;;;;26.2;15.9;;;;;;;5.96;83.7;98663.333333333;;;;
2024/03/15 08:47:19;;;;;;;25.4;17;;;;;;;5.67;85.38;98665;;;;
2024/03/15 08:58:19;;;;;;;25.4;17;;;;;;;5.95;84.11;98661.666666667;;;;
2024/03/15 09:09:21;;;;;;;25.4;17;;;;;;;6.37;84.14;98656.666666667;;;;
2024/03/15 09:19:21;;;;;;;26.5;15.8;;;;;;;6.57;83.05;98655;;;;
2024/03/15 09:30:20;;;;;;;26.5;15.8;;;;;;;6.73;82.45;98658.333333333;;;;
2024/03/15 09:41:19;;;;;;;26.5;15.8;;;;;;;6.82;83.17;98648.333333333;;;;
2024/03/15 09:52:19;;;;;;;29.9;15.9;;;;;;;7.37;81.04;98646.666666667;;;;
2024/03/15 10:02:22;;;;;;;29.9;15.9;;;;;;;7.62;80.03;98643.333333333;;;;
2024/03/15 10:12:19;;;;;;;29.9;15.9;;;;;;;7.81;79.81;98635;;;;
2024/03/15 10:22:19;;;;;;;21.6;15.8;;;;;;;8.2;79.84;98628.333333333;;;;
2024/03/15 10:33:19;;;;;;;21.6;15.8;;;;;;;8.2;79.4;98620;;;;
2024/03/15 10:43:19;;;;;;;21.6;15.8;;;;;;;8.57;78.85;98618.333333333;;;;
2024/03/15 10:54:19;;;;;;;24.9;16.1;;;;;;;8.68;78.32;98608.333333333;;;;
2024/03/15 11:04:19;;;;;;;24.9;16.1;;;;;;;9.6;77.05;98600;;;;
2024/03/15 11:14:20;;;;;;;24.9;16.1;;;;;;;10.13;76.13;98595;;;;
2024/03/15 11:24:19;;;;;;;22.3;16.3;;;;;;;10.62;74.41;98588.333333333;;;;
2024/03/15 11:35:19;;;;;;;22.3;16.3;;;;;;;10.97;72.76;98586.666666667;;;;
2024/03/15 11:45:19;;;;;;;22.3;16.3;;;;;;;11.58;71.63;98576.666666667;;;;
2024/03/15 11:55:19;;;;;;;22;17.2;;;;;;;12.13;70.67;98570;;;;
2024/03/15 12:05:19;;;;;;;22;17.2;;;;;;;12.16;70.04;98560;;;;
2024/03/15 12:15:19;;;;;;;22;17.2;;;;;;;12.71;67.96;98550;;;;
2024/03/15 12:26:19;;;;;;;23.4;17.4;;;;;;;12.82;66.51;98542.5;;;;
2024/03/15 12:36:19;;;;;;;23.4;17.4;;;;;;;13.26;66.82;98531.666666667;;;;
2024/03/15 12:46:19;;;;;;;21;16.2;;;;;;;13.49;62.16;98514;;;;
2024/03/15 12:56:20;;;;;;;21;16.2;;;;;;;13.59;59.49;98516;;;;
2024/03/15 13:06:19;;;;;;;21;16.2;;;;;;;13.97;60.46;98508;;;;
2024/03/15 13:16:19;;;;;;;15.8;12.1;;;;;;;14.04;57.89;98508;;;;
2024/03/15 13:26:24;;;;;;;15.8;12.1;;;;;;;14.64;60.12;98508;;;;
2024/03/15 13:37:19;;;;;;;15.8;12.1;;;;;;;14.88;57.11;98502;;;;
2024/03/15 13:47:19;;;;;;;14.8;11.2;;;;;;;14.48;57.31;98464;;;;
2024/03/15 13:58:19;;;;;;;14.8;11.2;;;;;;;14.43;57.65;98458;;;;
2024/03/15 14:08:19;;;;;;;14.8;11.2;;;;;;;14.12;58.76;98461.666666667;;;;
2024/03/15 14:19:19;;;;;;;16.8;11.4;;;;;;;14.39;57.55;98463.333333333;;;;
2024/03/15 14:30:19;;;;;;;16.8;11.4;;;;;;;13.92;58.97;98461.666666667;;;;
2024/03/15 14:40:20;;;;;;;16.8;11.4;;;;;;;14.15;59.42;98460;;;;
2024/03/15 14:50:19;;;;;;;13.6;10.6;;;;;;;14.14;59.86;98453.333333333;;;;
2024/03/15 15:01:19;;;;;;;13.6;10.6;;;;;;;14.02;61.01;98445;;;;
2024/03/15 15:11:19;;;;;;;13.6;10.6;;;;;;;13.74;61.05;98438.333333333;;;;
2024/03/15 15:22:19;;;;;;;13;9.5;;;;;;;13.42;61.87;98440;;;;
2024/03/15 15:33:19;;;;;;;13;9.5;;;;;;;13.09;63.69;98430;;;;
2024/03/15 15:44:19;;;;;;;13;9.5;;;;;;;12.89;64.42;98424;;;;
2024/03/15 15:54:22;;;;;;;13.2;9.2;;;;;;;12.54;65.25;98420;;;;
2024/03/15 16:05:19;;;;;;;13.2;9.2;;;;;;;12.11;66.73;98414;;;;
2024/03/15 16:15:19;;;;;;;13.2;9.2;;;;;;;11.78;67.69;98414;;;;
2024/03/15 16:26:19;;;;;;;12.6;9.6;;;;;;;11.47;68.36;98430;;;;
2024/03/15 16:37:19;;;;;;;12.6;9.6;;;;;;;11.14;69.47;98443.333333333;;;;
2024/03/15 16:48:21;;;;;;;13.9;8.5;;;;;;;10.84;69.88;98440;;;;
2024/03/15 16:58:21;;;;;;;13.9;8.5;;;;;;;10.59;70.63;98450;;;;
2024/03/15 17:09:19;;;;;;;13.9;8.5;;;;;;;10.3;71.44;98460;;;;
2024/03/15 17:19:19;;;;;;;17.1;10;;;;;;;10.1;71.58;98466.666666667;;;;
2024/03/15 17:29:20;;;;;;;17.1;10;;;;;;;9.94;72.27;98470;;;;
2024/03/15 17:39:20;;;;;;;17.1;10;;;;;;;9.76;73.96;98478;;;;
2024/03/15 17:50:27;;;;;;;25.9;19;;;;;;;9.55;74.5;98474;;;;
2024/03/15 18:01:19;;;;;;;25.9;19;;;;;;;9.32;75.47;98480;;;;
2024/03/15 18:12:19;;;;;;;25.9;19;;;;;;;9.13;75.87;98472;;;;
2024/03/15 18:22:19;;;;;;;19.4;10.9;;;;;;;9;76.67;98472;;;;
2024/03/15 18:32:19;;;;;;;19.4;10.9;;;;;;;8.9;77.36;98468;;;;
2024/03/15 18:42:19;;;;;;;19.4;10.9;;;;;;;8.76;77.52;98476;;;;
2024/03/15 18:53:19;;;;;;;22.8;13;;;;;;;8.6;78.29;98482;;;;
2024/03/15 19:04:19;;;;;;;22.8;13;;;;;;;8.45;78.74;98480;;;;
2024/03/15 19:15:24;;;;;;;26.4;17.3;;;;;;;8.29;78.76;98473.333333333;;;;
2024/03/15 19:25:19;;;;;;;26.4;17.3;;;;;;;8.15;78.74;98463.333333333;;;;
2024/03/15 19:36:19;;;;;;;26.4;17.3;;;;;;;7.96;79.6;98460;;;;
2024/03/15 19:46:19;;;;;;;24.9;16.5;;;;;;;7.82;80.29;98455;;;;
2024/03/15 19:57:19;;;;;;;24.9;16.5;;;;;;;7.69;80.78;98446;;;;
2024/03/15 20:07:19;;;;;;;24.9;16.5;;;;;;;7.56;81.5;98452;;;;
2024/03/15 20:17:19;;;;;;;29.8;17.2;;;;;;;7.45;81.92;98452;;;;
2024/03/15 20:28:19;;;;;;;29.8;17.2;;;;;;;7.38;82.21;98461.666666667;;;;
2024/03/15 20:39:22;;;;;;;29.8;17.2;;;;;;;7.22;83.26;98452;;;;
2024/03/15 20:50:21;;;;;;;24.1;14.7;;;;;;;7.04;84.68;98454;;;;
2024/03/15 21:00:20;;;;;;;24.1;14.7;;;;;;;7.01;83.75;98452;;;;
2024/03/15 21:10:20;;;;;;;24.1;14.7;;;;;;;6.79;84.49;98454;;;;
2024/03/15 21:20:25;;;;;;;22.7;15.8;;;;;;;6.7;85.56;98458;;;;
2024/03/15 21:31:19;;;;;;;22.7;15.8;;;;;;;6.54;85.64;98458;;;;
2024/03/15 21:41:19;;;;;;;22.7;15.8;;;;;;;6.44;85.37;98452;;;;
2024/03/15 21:52:20;;;;;;;39;22.5;;;;;;;6.4;85.26;98458;;;;
2024/03/15 22:03:22;;;;;;;39;22.5;;;;;;;6.29;84.82;98464;;;;
2024/03/15 22:14:19;;;;;;;39;22.5;;;;;;;6.26;85.13;98468;;;;
2024/03/15 22:24:19;;;;;;;39;23.6;;;;;;;6.24;85.36;98472;;;;
2024/03/15 22:35:19;;;;;;;39;23.6;;;;;;;6.24;87.02;98474;;;;
2024/03/15 22:45:20;;;;;;;40.1;22;;;;;;;6.32;86.36;98474;;;;
2024/03/15 22:55:19;;;;;;;40.1;22;;;;;;;6.36;86.34;98474;;;;
2024/03/15 23:05:19;;;;;;;40.1;22;;;;;;;6.44;86.95;98474;;;;
2024/03/15 23:16:19;;;;;;;38;21.9;;;;;;;6.46;86.55;98472;;;;
2024/03/15 23:26:19;;;;;;;38;21.9;;;;;;;6.56;86.47;98475;;;;
2024/03/15 23:36:19;;;;;;;38;21.9;;;;;;;6.68;86.1;98476.666666667;;;;
2024/03/15 23:47:19;;;;;;;29.1;18.7;;;;;;;6.68;86.12;98468;;;;
2024/03/15 23:57:19;;;;;;;29.1;18.7;;;;;;;6.72;85.69;98468;;;;
